sensor_id;sensor_type;location;lat;lon;timestamp;P1;P2;P0
40371;PMS5003;28564;53.346;-6.554;2022-08-11T00:01:45;8;6;
40371;PMS5003;28564;53.346;-6.554;2022-08-11T00:04:15;6;6;
40371;PMS5003;28564;53.346;-6.554;2022-08-11T00:06:44;8;8;
40371;PMS5003;28564;53.346;-6.554;2022-08-11T00:09:14;8;7;
40371;PMS5003;28564;53.346;-6.554;2022-08-11T00:11:44;8;7;
40371;PMS5003;28564;53.346;-6.554;2022-08-11T00:14:15;6;5;
40371;PMS5003;28564;53.346;-6.554;2022-08-11T00:16:53;6;6;
40371;PMS5003;28564;53.346;-6.554;2022-08-11T00:19:23;7;7;
40371;PMS5003;28564;53.346;-6.554;2022-08-11T00:21:53;6;6;
40371;PMS5003;28564;53.346;-6.554;2022-08-11T00:24:22;7;7;
40371;PMS5003;28564;53.346;-6.554;2022-08-11T00:26:51;7;7;
40371;PMS5003;28564;53.346;-6.554;2022-08-11T00:29:20;7;6;
40371;PMS5003;28564;53.346;-6.554;2022-08-11T00:31:48;7;5;
40371;PMS5003;28564;53.346;-6.554;2022-08-11T00:34:20;8;6;
40371;PMS5003;28564;53.346;-6.554;2022-08-11T00:36:52;6;6;
40371;PMS5003;28564;53.346;-6.554;2022-08-11T00:39:26;5;5;
40371;PMS5003;28564;53.346;-6.554;2022-08-11T00:41:58;4;4;
40371;PMS5003;28564;53.346;-6.554;2022-08-11T00:44:39;6;6;
40371;PMS5003;28564;53.346;-6.554;2022-08-11T00:47:16;5;5;
40371;PMS5003;28564;53.346;-6.554;2022-08-11T00:49:57;4;4;
40371;PMS5003;28564;53.346;-6.554;2022-08-11T00:52:49;7;5;
40371;PMS5003;28564;53.346;-6.554;2022-08-11T00:55:37;5;5;
40371;PMS5003;28564;53.346;-6.554;2022-08-11T00:58:40;6;6;
40371;PMS5003;28564;53.346;-6.554;2022-08-11T01:02:15;5;5;
40371;PMS5003;28564;53.346;-6.554;2022-08-11T01:07:07;8;8;
40371;PMS5003;28564;53.346;-6.554;2022-08-11T01:10:00;6;6;
40371;PMS5003;28564;53.346;-6.554;2022-08-11T01:12:43;7;5;
40371;PMS5003;28564;53.346;-6.554;2022-08-11T01:15:32;11;9;
40371;PMS5003;28564;53.346;-6.554;2022-08-11T01:20:51;6;6;
40371;PMS5003;28564;53.346;-6.554;2022-08-11T01:23:54;4;4;
40371;PMS5003;28564;53.346;-6.554;2022-08-11T01:28:31;4;4;
40371;PMS5003;28564;53.346;-6.554;2022-08-11T01:31:26;4;4;
40371;PMS5003;28564;53.346;-6.554;2022-08-11T01:34:20;7;6;
40371;PMS5003;28564;53.346;-6.554;2022-08-11T01:37:57;8;8;
40371;PMS5003;28564;53.346;-6.554;2022-08-11T01:41:12;8;4;
40371;PMS5003;28564;53.346;-6.554;2022-08-11T01:44:00;4;4;
40371;PMS5003;28564;53.346;-6.554;2022-08-11T01:46:38;6;6;
40371;PMS5003;28564;53.346;-6.554;2022-08-11T01:49:18;7;7;
40371;PMS5003;28564;53.346;-6.554;2022-08-11T01:52:00;7;7;
40371;PMS5003;28564;53.346;-6.554;2022-08-11T01:54:41;5;5;
40371;PMS5003;28564;53.346;-6.554;2022-08-11T01:57:19;7;7;
40371;PMS5003;28564;53.346;-6.554;2022-08-11T01:59:56;5;5;
40371;PMS5003;28564;53.346;-6.554;2022-08-11T02:02:38;7;7;
40371;PMS5003;28564;53.346;-6.554;2022-08-11T02:05:17;7;7;
40371;PMS5003;28564;53.346;-6.554;2022-08-11T02:07:55;8;7;
40371;PMS5003;28564;53.346;-6.554;2022-08-11T02:10:31;6;6;
40371;PMS5003;28564;53.346;-6.554;2022-08-11T02:13:13;6;6;
40371;PMS5003;28564;53.346;-6.554;2022-08-11T02:15:49;6;6;
40371;PMS5003;28564;53.346;-6.554;2022-08-11T02:18:22;6;6;
40371;PMS5003;28564;53.346;-6.554;2022-08-11T02:20:54;6;5;
40371;PMS5003;28564;53.346;-6.554;2022-08-11T02:23:25;5;4;
40371;PMS5003;28564;53.346;-6.554;2022-08-11T02:25:58;7;7;
40371;PMS5003;28564;53.346;-6.554;2022-08-11T02:28:34;5;5;
40371;PMS5003;28564;53.346;-6.554;2022-08-11T02:31:15;7;7;
40371;PMS5003;28564;53.346;-6.554;2022-08-11T02:33:53;7;6;
40371;PMS5003;28564;53.346;-6.554;2022-08-11T02:36:35;7;7;
40371;PMS5003;28564;53.346;-6.554;2022-08-11T02:39:10;8;8;
40371;PMS5003;28564;53.346;-6.554;2022-08-11T02:41:46;7;7;
40371;PMS5003;28564;53.346;-6.554;2022-08-11T02:44:20;6;6;
40371;PMS5003;28564;53.346;-6.554;2022-08-11T02:47:01;5;5;
40371;PMS5003;28564;53.346;-6.554;2022-08-11T02:49:41;7;6;
40371;PMS5003;28564;53.346;-6.554;2022-08-11T02:52:17;5;5;
40371;PMS5003;28564;53.346;-6.554;2022-08-11T02:54:52;6;6;
40371;PMS5003;28564;53.346;-6.554;2022-08-11T02:57:36;7;7;
40371;PMS5003;28564;53.346;-6.554;2022-08-11T03:00:09;5;5;
40371;PMS5003;28564;53.346;-6.554;2022-08-11T03:05:43;7;7;
40371;PMS5003;28564;53.346;-6.554;2022-08-11T03:08:22;7;5;
40371;PMS5003;28564;53.346;-6.554;2022-08-11T03:11:04;5;5;
40371;PMS5003;28564;53.346;-6.554;2022-08-11T03:13:45;5;5;
40371;PMS5003;28564;53.346;-6.554;2022-08-11T03:16:23;6;6;
40371;PMS5003;28564;53.346;-6.554;2022-08-11T03:19:01;6;6;
40371;PMS5003;28564;53.346;-6.554;2022-08-11T03:21:39;6;6;
40371;PMS5003;28564;53.346;-6.554;2022-08-11T03:24:14;5;5;
40371;PMS5003;28564;53.346;-6.554;2022-08-11T03:29:34;9;8;
40371;PMS5003;28564;53.346;-6.554;2022-08-11T03:32:09;13;11;
40371;PMS5003;28564;53.346;-6.554;2022-08-11T03:34:47;13;11;
40371;PMS5003;28564;53.346;-6.554;2022-08-11T03:37:26;10;10;
40371;PMS5003;28564;53.346;-6.554;2022-08-11T03:40:09;11;9;
40371;PMS5003;28564;53.346;-6.554;2022-08-11T03:42:48;10;9;
40371;PMS5003;28564;53.346;-6.554;2022-08-11T03:45:30;10;9;
40371;PMS5003;28564;53.346;-6.554;2022-08-11T03:48:07;10;8;
40371;PMS5003;28564;53.346;-6.554;2022-08-11T03:50:49;7;7;
40371;PMS5003;28564;53.346;-6.554;2022-08-11T03:53:28;7;6;
40371;PMS5003;28564;53.346;-6.554;2022-08-11T03:56:44;10;10;
40371;PMS5003;28564;53.346;-6.554;2022-08-11T04:00:17;10;8;
40371;PMS5003;28564;53.346;-6.554;2022-08-11T04:03:01;8;7;
40371;PMS5003;28564;53.346;-6.554;2022-08-11T04:08:43;7;7;
40371;PMS5003;28564;53.346;-6.554;2022-08-11T04:11:34;7;7;
40371;PMS5003;28564;53.346;-6.554;2022-08-11T04:14:52;5;4;
40371;PMS5003;28564;53.346;-6.554;2022-08-11T04:17:44;5;5;
40371;PMS5003;28564;53.346;-6.554;2022-08-11T04:20:39;9;8;
40371;PMS5003;28564;53.346;-6.554;2022-08-11T04:23:18;8;8;
40371;PMS5003;28564;53.346;-6.554;2022-08-11T04:26:04;12;11;
40371;PMS5003;28564;53.346;-6.554;2022-08-11T04:28:54;7;7;
40371;PMS5003;28564;53.346;-6.554;2022-08-11T04:31:35;7;7;
40371;PMS5003;28564;53.346;-6.554;2022-08-11T04:34:04;8;8;
40371;PMS5003;28564;53.346;-6.554;2022-08-11T04:37:07;8;8;
40371;PMS5003;28564;53.346;-6.554;2022-08-11T04:39:53;9;9;
40371;PMS5003;28564;53.346;-6.554;2022-08-11T04:42:51;11;8;
40371;PMS5003;28564;53.346;-6.554;2022-08-11T04:46:00;7;7;
40371;PMS5003;28564;53.346;-6.554;2022-08-11T04:48:52;6;6;
40371;PMS5003;28564;53.346;-6.554;2022-08-11T04:50:13;6;6;
40371;PMS5003;28564;53.346;-6.554;2022-08-11T04:53:04;8;8;
40371;PMS5003;28564;53.346;-6.554;2022-08-11T04:56:01;9;8;
40371;PMS5003;28564;53.346;-6.554;2022-08-11T04:58:40;12;10;
40371;PMS5003;28564;53.346;-6.554;2022-08-11T05:01:22;6;6;
40371;PMS5003;28564;53.346;-6.554;2022-08-11T05:04:10;8;7;
40371;PMS5003;28564;53.346;-6.554;2022-08-11T05:07:00;10;9;
40371;PMS5003;28564;53.346;-6.554;2022-08-11T05:09:46;11;10;
40371;PMS5003;28564;53.346;-6.554;2022-08-11T05:12:28;9;9;
40371;PMS5003;28564;53.346;-6.554;2022-08-11T05:15:02;7;7;
40371;PMS5003;28564;53.346;-6.554;2022-08-11T05:17:34;11;10;
40371;PMS5003;28564;53.346;-6.554;2022-08-11T05:20:08;7;7;
40371;PMS5003;28564;53.346;-6.554;2022-08-11T05:22:36;11;9;
40371;PMS5003;28564;53.346;-6.554;2022-08-11T05:25:14;7;7;
40371;PMS5003;28564;53.346;-6.554;2022-08-11T05:27:44;7;7;
40371;PMS5003;28564;53.346;-6.554;2022-08-11T05:30:24;8;7;
40371;PMS5003;28564;53.346;-6.554;2022-08-11T05:32:55;7;7;
40371;PMS5003;28564;53.346;-6.554;2022-08-11T05:35:28;12;9;
40371;PMS5003;28564;53.346;-6.554;2022-08-11T05:38:01;6;6;
40371;PMS5003;28564;53.346;-6.554;2022-08-11T05:40:30;9;9;
40371;PMS5003;28564;53.346;-6.554;2022-08-11T05:42:59;13;9;
40371;PMS5003;28564;53.346;-6.554;2022-08-11T05:45:28;10;10;
40371;PMS5003;28564;53.346;-6.554;2022-08-11T05:47:56;7;6;
40371;PMS5003;28564;53.346;-6.554;2022-08-11T05:50:24;9;9;
40371;PMS5003;28564;53.346;-6.554;2022-08-11T05:52:52;7;7;
40371;PMS5003;28564;53.346;-6.554;2022-08-11T05:55:20;8;8;
40371;PMS5003;28564;53.346;-6.554;2022-08-11T05:57:53;8;8;
40371;PMS5003;28564;53.346;-6.554;2022-08-11T06:00:22;10;8;
40371;PMS5003;28564;53.346;-6.554;2022-08-11T06:02:52;7;7;
40371;PMS5003;28564;53.346;-6.554;2022-08-11T06:05:21;8;8;
40371;PMS5003;28564;53.346;-6.554;2022-08-11T06:07:51;13;11;
40371;PMS5003;28564;53.346;-6.554;2022-08-11T06:10:28;10;9;
40371;PMS5003;28564;53.346;-6.554;2022-08-11T06:12:58;9;8;
40371;PMS5003;28564;53.346;-6.554;2022-08-11T06:15:27;10;8;
40371;PMS5003;28564;53.346;-6.554;2022-08-11T06:17:58;9;7;
40371;PMS5003;28564;53.346;-6.554;2022-08-11T06:20:27;12;11;
40371;PMS5003;28564;53.346;-6.554;2022-08-11T06:22:56;9;8;
40371;PMS5003;28564;53.346;-6.554;2022-08-11T06:25:30;8;8;
40371;PMS5003;28564;53.346;-6.554;2022-08-11T06:27:59;8;8;
40371;PMS5003;28564;53.346;-6.554;2022-08-11T06:30:32;11;10;
40371;PMS5003;28564;53.346;-6.554;2022-08-11T06:33:01;7;7;
40371;PMS5003;28564;53.346;-6.554;2022-08-11T06:35:34;8;7;
40371;PMS5003;28564;53.346;-6.554;2022-08-11T06:38:11;9;7;
40371;PMS5003;28564;53.346;-6.554;2022-08-11T06:40:42;6;6;
40371;PMS5003;28564;53.346;-6.554;2022-08-11T06:43:20;11;10;
40371;PMS5003;28564;53.346;-6.554;2022-08-11T06:45:52;7;7;
40371;PMS5003;28564;53.346;-6.554;2022-08-11T06:48:25;11;7;
40371;PMS5003;28564;53.346;-6.554;2022-08-11T06:50:55;6;6;
40371;PMS5003;28564;53.346;-6.554;2022-08-11T06:53:25;6;5;
40371;PMS5003;28564;53.346;-6.554;2022-08-11T06:55:59;6;6;
40371;PMS5003;28564;53.346;-6.554;2022-08-11T06:58:28;5;4;
40371;PMS5003;28564;53.346;-6.554;2022-08-11T07:00:58;8;8;
40371;PMS5003;28564;53.346;-6.554;2022-08-11T07:03:31;6;6;
40371;PMS5003;28564;53.346;-6.554;2022-08-11T07:06:14;6;5;
40371;PMS5003;28564;53.346;-6.554;2022-08-11T07:10:02;6;6;
40371;PMS5003;28564;53.346;-6.554;2022-08-11T07:12:55;4;4;
40371;PMS5003;28564;53.346;-6.554;2022-08-11T07:15:30;6;3;
40371;PMS5003;28564;53.346;-6.554;2022-08-11T07:17:59;6;4;
40371;PMS5003;28564;53.346;-6.554;2022-08-11T07:20:32;6;6;
40371;PMS5003;28564;53.346;-6.554;2022-08-11T07:23:01;6;5;
40371;PMS5003;28564;53.346;-6.554;2022-08-11T07:25:29;7;6;
40371;PMS5003;28564;53.346;-6.554;2022-08-11T07:28:02;7;7;
40371;PMS5003;28564;53.346;-6.554;2022-08-11T07:30:33;9;8;
40371;PMS5003;28564;53.346;-6.554;2022-08-11T07:33:05;7;6;
40371;PMS5003;28564;53.346;-6.554;2022-08-11T07:35:35;5;5;
40371;PMS5003;28564;53.346;-6.554;2022-08-11T07:38:15;6;6;
40371;PMS5003;28564;53.346;-6.554;2022-08-11T07:40:45;5;5;
40371;PMS5003;28564;53.346;-6.554;2022-08-11T07:43:13;7;5;
40371;PMS5003;28564;53.346;-6.554;2022-08-11T07:45:42;5;4;
40371;PMS5003;28564;53.346;-6.554;2022-08-11T07:48:10;1;1;
40371;PMS5003;28564;53.346;-6.554;2022-08-11T07:50:40;2;2;
40371;PMS5003;28564;53.346;-6.554;2022-08-11T07:53:09;4;4;
40371;PMS5003;28564;53.346;-6.554;2022-08-11T07:55:38;4;4;
40371;PMS5003;28564;53.346;-6.554;2022-08-11T07:58:07;6;5;
40371;PMS5003;28564;53.346;-6.554;2022-08-11T08:00:37;5;4;
40371;PMS5003;28564;53.346;-6.554;2022-08-11T08:03:07;5;5;
40371;PMS5003;28564;53.346;-6.554;2022-08-11T08:05:36;4;4;
40371;PMS5003;28564;53.346;-6.554;2022-08-11T08:08:04;5;5;
40371;PMS5003;28564;53.346;-6.554;2022-08-11T08:10:34;5;5;
40371;PMS5003;28564;53.346;-6.554;2022-08-11T08:13:03;3;3;
40371;PMS5003;28564;53.346;-6.554;2022-08-11T08:15:33;5;5;
40371;PMS5003;28564;53.346;-6.554;2022-08-11T08:18:01;4;4;
40371;PMS5003;28564;53.346;-6.554;2022-08-11T08:20:32;4;4;
40371;PMS5003;28564;53.346;-6.554;2022-08-11T08:23:02;6;3;
40371;PMS5003;28564;53.346;-6.554;2022-08-11T08:25:30;4;4;
40371;PMS5003;28564;53.346;-6.554;2022-08-11T08:28:02;4;4;
40371;PMS5003;28564;53.346;-6.554;2022-08-11T08:30:32;2;2;
40371;PMS5003;28564;53.346;-6.554;2022-08-11T08:33:00;3;3;
40371;PMS5003;28564;53.346;-6.554;2022-08-11T08:35:34;2;2;
40371;PMS5003;28564;53.346;-6.554;2022-08-11T08:38:03;2;2;
40371;PMS5003;28564;53.346;-6.554;2022-08-11T08:40:31;3;2;
40371;PMS5003;28564;53.346;-6.554;2022-08-11T08:43:01;1;1;
40371;PMS5003;28564;53.346;-6.554;2022-08-11T08:45:33;4;3;
40371;PMS5003;28564;53.346;-6.554;2022-08-11T08:48:07;2;2;
40371;PMS5003;28564;53.346;-6.554;2022-08-11T08:50:44;3;1;
40371;PMS5003;28564;53.346;-6.554;2022-08-11T08:53:19;4;2;
40371;PMS5003;28564;53.346;-6.554;2022-08-11T08:55:53;4;2;
40371;PMS5003;28564;53.346;-6.554;2022-08-11T08:58:23;2;2;
40371;PMS5003;28564;53.346;-6.554;2022-08-11T09:03:52;3;3;
40371;PMS5003;28564;53.346;-6.554;2022-08-11T09:06:19;2;2;
40371;PMS5003;28564;53.346;-6.554;2022-08-11T09:08:47;3;3;
40371;PMS5003;28564;53.346;-6.554;2022-08-11T09:11:15;6;6;
40371;PMS5003;28564;53.346;-6.554;2022-08-11T09:13:43;4;4;
40371;PMS5003;28564;53.346;-6.554;2022-08-11T09:16:13;4;4;
40371;PMS5003;28564;53.346;-6.554;2022-08-11T09:18:42;5;5;
40371;PMS5003;28564;53.346;-6.554;2022-08-11T09:21:10;4;4;
40371;PMS5003;28564;53.346;-6.554;2022-08-11T09:23:38;5;5;
40371;PMS5003;28564;53.346;-6.554;2022-08-11T09:26:06;5;5;
40371;PMS5003;28564;53.346;-6.554;2022-08-11T09:28:34;7;5;
40371;PMS5003;28564;53.346;-6.554;2022-08-11T09:31:01;3;3;
40371;PMS5003;28564;53.346;-6.554;2022-08-11T09:33:31;5;5;
40371;PMS5003;28564;53.346;-6.554;2022-08-11T09:36:00;5;5;
40371;PMS5003;28564;53.346;-6.554;2022-08-11T09:38:28;5;5;
40371;PMS5003;28564;53.346;-6.554;2022-08-11T09:40:55;5;5;
40371;PMS5003;28564;53.346;-6.554;2022-08-11T09:43:23;5;5;
40371;PMS5003;28564;53.346;-6.554;2022-08-11T09:45:52;6;4;
40371;PMS5003;28564;53.346;-6.554;2022-08-11T09:48:21;9;4;
40371;PMS5003;28564;53.346;-6.554;2022-08-11T09:50:50;4;4;
40371;PMS5003;28564;53.346;-6.554;2022-08-11T09:53:20;5;5;
40371;PMS5003;28564;53.346;-6.554;2022-08-11T09:55:49;5;5;
40371;PMS5003;28564;53.346;-6.554;2022-08-11T09:58:17;4;4;
40371;PMS5003;28564;53.346;-6.554;2022-08-11T10:00:47;3;3;
40371;PMS5003;28564;53.346;-6.554;2022-08-11T10:03:17;4;4;
40371;PMS5003;28564;53.346;-6.554;2022-08-11T10:05:47;3;3;
40371;PMS5003;28564;53.346;-6.554;2022-08-11T10:08:17;3;2;
40371;PMS5003;28564;53.346;-6.554;2022-08-11T10:10:46;3;3;
40371;PMS5003;28564;53.346;-6.554;2022-08-11T10:13:15;3;3;
40371;PMS5003;28564;53.346;-6.554;2022-08-11T10:15:45;3;3;
40371;PMS5003;28564;53.346;-6.554;2022-08-11T10:18:14;3;2;
40371;PMS5003;28564;53.346;-6.554;2022-08-11T10:20:44;1;1;
40371;PMS5003;28564;53.346;-6.554;2022-08-11T10:23:14;2;2;
40371;PMS5003;28564;53.346;-6.554;2022-08-11T10:25:43;1;1;
40371;PMS5003;28564;53.346;-6.554;2022-08-11T10:28:10;2;2;
40371;PMS5003;28564;53.346;-6.554;2022-08-11T10:30:38;2;2;
40371;PMS5003;28564;53.346;-6.554;2022-08-11T10:33:05;3;3;
40371;PMS5003;28564;53.346;-6.554;2022-08-11T10:35:33;2;1;
40371;PMS5003;28564;53.346;-6.554;2022-08-11T10:38:00;1;1;
40371;PMS5003;28564;53.346;-6.554;2022-08-11T10:40:29;0;0;
40371;PMS5003;28564;53.346;-6.554;2022-08-11T10:42:58;2;2;
40371;PMS5003;28564;53.346;-6.554;2022-08-11T10:45:27;3;3;
40371;PMS5003;28564;53.346;-6.554;2022-08-11T10:48:03;2;2;
40371;PMS5003;28564;53.346;-6.554;2022-08-11T10:50:32;2;2;
40371;PMS5003;28564;53.346;-6.554;2022-08-11T10:53:00;3;3;
40371;PMS5003;28564;53.346;-6.554;2022-08-11T10:55:31;5;4;
40371;PMS5003;28564;53.346;-6.554;2022-08-11T10:58:01;4;2;
40371;PMS5003;28564;53.346;-6.554;2022-08-11T11:00:32;3;2;
40371;PMS5003;28564;53.346;-6.554;2022-08-11T11:03:00;3;3;
40371;PMS5003;28564;53.346;-6.554;2022-08-11T11:05:29;3;3;
40371;PMS5003;28564;53.346;-6.554;2022-08-11T11:08:00;2;2;
40371;PMS5003;28564;53.346;-6.554;2022-08-11T11:10:38;1;1;
40371;PMS5003;28564;53.346;-6.554;2022-08-11T11:13:07;2;2;
40371;PMS5003;28564;53.346;-6.554;2022-08-11T11:15:35;2;2;
40371;PMS5003;28564;53.346;-6.554;2022-08-11T11:18:07;3;3;
40371;PMS5003;28564;53.346;-6.554;2022-08-11T11:20:38;3;3;
40371;PMS5003;28564;53.346;-6.554;2022-08-11T11:23:11;2;2;
40371;PMS5003;28564;53.346;-6.554;2022-08-11T11:25:53;3;3;
40371;PMS5003;28564;53.346;-6.554;2022-08-11T11:28:30;2;2;
40371;PMS5003;28564;53.346;-6.554;2022-08-11T11:31:20;2;2;
40371;PMS5003;28564;53.346;-6.554;2022-08-11T11:34:03;2;2;
40371;PMS5003;28564;53.346;-6.554;2022-08-11T11:36:43;2;2;
40371;PMS5003;28564;53.346;-6.554;2022-08-11T11:39:15;4;2;
40371;PMS5003;28564;53.346;-6.554;2022-08-11T11:41:46;3;3;
40371;PMS5003;28564;53.346;-6.554;2022-08-11T11:44:15;3;3;
40371;PMS5003;28564;53.346;-6.554;2022-08-11T11:46:43;4;4;
40371;PMS5003;28564;53.346;-6.554;2022-08-11T11:49:11;3;3;
40371;PMS5003;28564;53.346;-6.554;2022-08-11T11:51:41;3;3;
40371;PMS5003;28564;53.346;-6.554;2022-08-11T11:54:13;2;0;
40371;PMS5003;28564;53.346;-6.554;2022-08-11T11:56:40;2;2;
40371;PMS5003;28564;53.346;-6.554;2022-08-11T11:59:09;0;0;
40371;PMS5003;28564;53.346;-6.554;2022-08-11T12:01:38;3;1;
40371;PMS5003;28564;53.346;-6.554;2022-08-11T12:04:06;1;1;
40371;PMS5003;28564;53.346;-6.554;2022-08-11T12:06:34;1;1;
40371;PMS5003;28564;53.346;-6.554;2022-08-11T12:09:02;2;2;
40371;PMS5003;28564;53.346;-6.554;2022-08-11T12:11:31;0;0;
40371;PMS5003;28564;53.346;-6.554;2022-08-11T12:13:59;3;3;
40371;PMS5003;28564;53.346;-6.554;2022-08-11T12:16:29;3;2;
40371;PMS5003;28564;53.346;-6.554;2022-08-11T12:18:59;1;1;
40371;PMS5003;28564;53.346;-6.554;2022-08-11T12:21:28;2;2;
40371;PMS5003;28564;53.346;-6.554;2022-08-11T12:23:57;1;1;
40371;PMS5003;28564;53.346;-6.554;2022-08-11T12:26:27;3;3;
40371;PMS5003;28564;53.346;-6.554;2022-08-11T12:28:56;2;2;
40371;PMS5003;28564;53.346;-6.554;2022-08-11T12:31:25;3;3;
40371;PMS5003;28564;53.346;-6.554;2022-08-11T12:33:59;2;2;
40371;PMS5003;28564;53.346;-6.554;2022-08-11T12:36:27;3;3;
40371;PMS5003;28564;53.346;-6.554;2022-08-11T12:38:59;3;3;
40371;PMS5003;28564;53.346;-6.554;2022-08-11T12:41:28;2;2;
40371;PMS5003;28564;53.346;-6.554;2022-08-11T12:43:56;2;1;
40371;PMS5003;28564;53.346;-6.554;2022-08-11T12:46:28;2;2;
40371;PMS5003;28564;53.346;-6.554;2022-08-11T12:48:59;3;1;
40371;PMS5003;28564;53.346;-6.554;2022-08-11T12:51:46;3;3;
40371;PMS5003;28564;53.346;-6.554;2022-08-11T12:54:19;3;3;
40371;PMS5003;28564;53.346;-6.554;2022-08-11T12:56:57;3;2;
40371;PMS5003;28564;53.346;-6.554;2022-08-11T12:59:26;1;1;
40371;PMS5003;28564;53.346;-6.554;2022-08-11T13:01:56;4;2;
40371;PMS5003;28564;53.346;-6.554;2022-08-11T13:04:23;3;2;
40371;PMS5003;28564;53.346;-6.554;2022-08-11T13:06:51;3;3;
40371;PMS5003;28564;53.346;-6.554;2022-08-11T13:09:20;2;2;
40371;PMS5003;28564;53.346;-6.554;2022-08-11T13:11:47;3;3;
40371;PMS5003;28564;53.346;-6.554;2022-08-11T13:14:15;1;1;
40371;PMS5003;28564;53.346;-6.554;2022-08-11T13:16:43;3;3;
40371;PMS5003;28564;53.346;-6.554;2022-08-11T13:19:11;2;1;
40371;PMS5003;28564;53.346;-6.554;2022-08-11T13:21:39;4;3;
40371;PMS5003;28564;53.346;-6.554;2022-08-11T13:24:07;2;2;
40371;PMS5003;28564;53.346;-6.554;2022-08-11T13:26:35;4;4;
40371;PMS5003;28564;53.346;-6.554;2022-08-11T13:29:03;2;2;
40371;PMS5003;28564;53.346;-6.554;2022-08-11T13:31:31;1;1;
40371;PMS5003;28564;53.346;-6.554;2022-08-11T13:33:59;2;2;
40371;PMS5003;28564;53.346;-6.554;2022-08-11T13:36:33;2;2;
40371;PMS5003;28564;53.346;-6.554;2022-08-11T13:39:05;1;1;
40371;PMS5003;28564;53.346;-6.554;2022-08-11T13:41:33;2;2;
40371;PMS5003;28564;53.346;-6.554;2022-08-11T13:44:00;2;2;
40371;PMS5003;28564;53.346;-6.554;2022-08-11T13:46:29;3;3;
40371;PMS5003;28564;53.346;-6.554;2022-08-11T13:48:56;3;3;
40371;PMS5003;28564;53.346;-6.554;2022-08-11T13:51:30;1;1;
40371;PMS5003;28564;53.346;-6.554;2022-08-11T13:53:59;3;3;
40371;PMS5003;28564;53.346;-6.554;2022-08-11T13:56:28;2;2;
40371;PMS5003;28564;53.346;-6.554;2022-08-11T13:58:57;2;2;
40371;PMS5003;28564;53.346;-6.554;2022-08-11T14:01:28;0;0;
40371;PMS5003;28564;53.346;-6.554;2022-08-11T14:03:58;2;2;
40371;PMS5003;28564;53.346;-6.554;2022-08-11T14:06:34;1;1;
40371;PMS5003;28564;53.346;-6.554;2022-08-11T14:09:03;1;1;
40371;PMS5003;28564;53.346;-6.554;2022-08-11T14:11:35;2;1;
40371;PMS5003;28564;53.346;-6.554;2022-08-11T14:14:06;2;0;
40371;PMS5003;28564;53.346;-6.554;2022-08-11T14:16:40;1;1;
40371;PMS5003;28564;53.346;-6.554;2022-08-11T14:19:11;0;0;
40371;PMS5003;28564;53.346;-6.554;2022-08-11T14:21:41;2;2;
40371;PMS5003;28564;53.346;-6.554;2022-08-11T14:24:09;3;3;
40371;PMS5003;28564;53.346;-6.554;2022-08-11T14:26:37;2;2;
40371;PMS5003;28564;53.346;-6.554;2022-08-11T14:29:08;2;2;
40371;PMS5003;28564;53.346;-6.554;2022-08-11T14:31:38;3;2;
40371;PMS5003;28564;53.346;-6.554;2022-08-11T14:34:09;0;0;
40371;PMS5003;28564;53.346;-6.554;2022-08-11T14:36:38;2;2;
40371;PMS5003;28564;53.346;-6.554;2022-08-11T14:39:09;1;1;
40371;PMS5003;28564;53.346;-6.554;2022-08-11T14:41:38;1;1;
40371;PMS5003;28564;53.346;-6.554;2022-08-11T14:44:08;1;1;
40371;PMS5003;28564;53.346;-6.554;2022-08-11T14:46:37;1;1;
40371;PMS5003;28564;53.346;-6.554;2022-08-11T14:49:05;1;1;
40371;PMS5003;28564;53.346;-6.554;2022-08-11T14:51:33;3;3;
40371;PMS5003;28564;53.346;-6.554;2022-08-11T14:54:01;2;2;
40371;PMS5003;28564;53.346;-6.554;2022-08-11T14:56:29;2;2;
40371;PMS5003;28564;53.346;-6.554;2022-08-11T14:58:57;1;1;
40371;PMS5003;28564;53.346;-6.554;2022-08-11T15:01:25;1;1;
40371;PMS5003;28564;53.346;-6.554;2022-08-11T15:03:52;1;1;
40371;PMS5003;28564;53.346;-6.554;2022-08-11T15:06:21;2;2;
40371;PMS5003;28564;53.346;-6.554;2022-08-11T15:08:51;1;1;
40371;PMS5003;28564;53.346;-6.554;2022-08-11T15:11:19;1;1;
40371;PMS5003;28564;53.346;-6.554;2022-08-11T15:13:48;0;0;
40371;PMS5003;28564;53.346;-6.554;2022-08-11T15:16:16;1;1;
40371;PMS5003;28564;53.346;-6.554;2022-08-11T15:18:43;1;1;
40371;PMS5003;28564;53.346;-6.554;2022-08-11T15:21:10;1;1;
40371;PMS5003;28564;53.346;-6.554;2022-08-11T15:23:38;2;2;
40371;PMS5003;28564;53.346;-6.554;2022-08-11T15:26:07;4;4;
40371;PMS5003;28564;53.346;-6.554;2022-08-11T15:28:39;1;1;
40371;PMS5003;28564;53.346;-6.554;2022-08-11T15:31:10;1;1;
40371;PMS5003;28564;53.346;-6.554;2022-08-11T15:33:41;2;2;
40371;PMS5003;28564;53.346;-6.554;2022-08-11T15:36:11;1;1;
40371;PMS5003;28564;53.346;-6.554;2022-08-11T15:38:41;2;2;
40371;PMS5003;28564;53.346;-6.554;2022-08-11T15:41:14;1;1;
40371;PMS5003;28564;53.346;-6.554;2022-08-11T15:43:44;0;0;
40371;PMS5003;28564;53.346;-6.554;2022-08-11T15:46:19;3;1;
40371;PMS5003;28564;53.346;-6.554;2022-08-11T15:48:51;2;2;
40371;PMS5003;28564;53.346;-6.554;2022-08-11T15:51:31;0;0;
40371;PMS5003;28564;53.346;-6.554;2022-08-11T15:54:02;1;1;
40371;PMS5003;28564;53.346;-6.554;2022-08-11T15:56:34;2;2;
40371;PMS5003;28564;53.346;-6.554;2022-08-11T15:59:02;2;2;
40371;PMS5003;28564;53.346;-6.554;2022-08-11T16:01:32;0;0;
40371;PMS5003;28564;53.346;-6.554;2022-08-11T16:04:05;0;0;
40371;PMS5003;28564;53.346;-6.554;2022-08-11T16:06:37;1;1;
40371;PMS5003;28564;53.346;-6.554;2022-08-11T16:09:08;1;1;
40371;PMS5003;28564;53.346;-6.554;2022-08-11T16:11:42;1;1;
40371;PMS5003;28564;53.346;-6.554;2022-08-11T16:14:11;1;1;
40371;PMS5003;28564;53.346;-6.554;2022-08-11T16:16:42;1;1;
40371;PMS5003;28564;53.346;-6.554;2022-08-11T16:19:11;1;1;
40371;PMS5003;28564;53.346;-6.554;2022-08-11T16:21:41;1;1;
40371;PMS5003;28564;53.346;-6.554;2022-08-11T16:24:11;0;0;
40371;PMS5003;28564;53.346;-6.554;2022-08-11T16:26:40;0;0;
40371;PMS5003;28564;53.346;-6.554;2022-08-11T16:29:09;1;1;
40371;PMS5003;28564;53.346;-6.554;2022-08-11T16:31:37;1;1;
40371;PMS5003;28564;53.346;-6.554;2022-08-11T16:34:07;1;1;
40371;PMS5003;28564;53.346;-6.554;2022-08-11T16:36:35;1;1;
40371;PMS5003;28564;53.346;-6.554;2022-08-11T16:39:08;1;1;
40371;PMS5003;28564;53.346;-6.554;2022-08-11T16:41:39;1;1;
40371;PMS5003;28564;53.346;-6.554;2022-08-11T16:44:09;1;1;
40371;PMS5003;28564;53.346;-6.554;2022-08-11T16:46:39;1;1;
40371;PMS5003;28564;53.346;-6.554;2022-08-11T16:49:07;1;1;
40371;PMS5003;28564;53.346;-6.554;2022-08-11T16:51:37;1;1;
40371;PMS5003;28564;53.346;-6.554;2022-08-11T16:54:04;0;0;
40371;PMS5003;28564;53.346;-6.554;2022-08-11T16:56:34;1;1;
40371;PMS5003;28564;53.346;-6.554;2022-08-11T16:59:06;1;1;
40371;PMS5003;28564;53.346;-6.554;2022-08-11T17:01:35;0;0;
40371;PMS5003;28564;53.346;-6.554;2022-08-11T17:04:06;1;1;
40371;PMS5003;28564;53.346;-6.554;2022-08-11T17:06:40;1;1;
40371;PMS5003;28564;53.346;-6.554;2022-08-11T17:09:10;0;0;
40371;PMS5003;28564;53.346;-6.554;2022-08-11T17:11:43;0;0;
40371;PMS5003;28564;53.346;-6.554;2022-08-11T17:14:14;1;1;
40371;PMS5003;28564;53.346;-6.554;2022-08-11T17:16:46;0;0;
40371;PMS5003;28564;53.346;-6.554;2022-08-11T17:19:20;1;1;
40371;PMS5003;28564;53.346;-6.554;2022-08-11T17:21:50;0;0;
40371;PMS5003;28564;53.346;-6.554;2022-08-11T17:24:18;1;1;
40371;PMS5003;28564;53.346;-6.554;2022-08-11T17:26:46;3;3;
40371;PMS5003;28564;53.346;-6.554;2022-08-11T17:29:16;3;3;
40371;PMS5003;28564;53.346;-6.554;2022-08-11T17:31:46;7;6;
40371;PMS5003;28564;53.346;-6.554;2022-08-11T17:34:16;5;4;
40371;PMS5003;28564;53.346;-6.554;2022-08-11T17:36:43;2;2;